createdAt,value
2023-12-12T00:01:29.479Z,10.57
2023-12-12T00:03:57.022Z,9.70
2023-12-12T00:06:26.134Z,10.48
2023-12-12T00:08:53.280Z,9.15
2023-12-12T00:11:21.162Z,10.88
2023-12-12T00:13:48.883Z,10.98
2023-12-12T00:16:18.958Z,11.05
2023-12-12T00:18:46.241Z,9.40
2023-12-12T00:21:14.464Z,8.68
2023-12-12T00:23:41.918Z,7.03
2023-12-12T00:26:14.408Z,9.88
2023-12-12T00:28:42.111Z,7.63
2023-12-12T00:31:09.802Z,8.13
2023-12-12T00:33:36.857Z,10.07
2023-12-12T00:36:04.876Z,9.43
2023-12-12T00:38:35.060Z,7.93
2023-12-12T00:41:02.176Z,11.40
2023-12-12T00:43:29.381Z,9.35
2023-12-12T00:45:57.777Z,12.18
2023-12-12T00:48:27.970Z,9.30
2023-12-12T00:50:55.128Z,8.13
2023-12-12T00:53:22.085Z,7.85
2023-12-12T00:55:49.080Z,9.18
2023-12-12T00:58:16.286Z,6.93
2023-12-12T01:00:45.738Z,10.38
2023-12-12T01:03:12.793Z,7.85
2023-12-12T01:05:39.926Z,10.27
2023-12-12T01:08:07.245Z,9.02
2023-12-12T01:10:37.842Z,5.57
2023-12-12T01:13:05.727Z,8.65
2023-12-12T01:15:32.853Z,6.68
2023-12-12T01:18:07.913Z,7.45
2023-12-12T01:20:35.567Z,7.88
2023-12-12T01:23:02.558Z,5.95
2023-12-12T01:25:32.970Z,6.53
2023-12-12T01:28:00.989Z,6.35
2023-12-12T01:30:27.997Z,4.82
2023-12-12T01:32:55.368Z,7.40
2023-12-12T01:35:25.365Z,7.18
2023-12-12T01:37:55.433Z,8.07
2023-12-12T01:40:23.881Z,4.40
2023-12-12T01:42:51.734Z,7.32
2023-12-12T01:45:19.958Z,5.85
2023-12-12T01:47:48.401Z,6.05
2023-12-12T01:50:16.189Z,8.65
2023-12-12T01:52:44.022Z,7.22
2023-12-12T01:55:14.290Z,9.13
2023-12-12T01:57:41.907Z,9.38
2023-12-12T02:00:10.420Z,11.82
2023-12-12T02:02:40.247Z,9.20
2023-12-12T02:05:10.866Z,7.10
2023-12-12T02:07:38.574Z,10.88
2023-12-12T02:10:05.922Z,10.95
2023-12-12T02:12:34.207Z,9.05
2023-12-12T02:15:01.374Z,6.82
2023-12-12T02:17:28.594Z,7.90
2023-12-12T02:19:56.145Z,10.05
2023-12-12T02:22:23.328Z,7.50
2023-12-12T02:24:50.496Z,11.98
2023-12-12T02:27:18.323Z,9.98
2023-12-12T02:29:45.465Z,7.35
2023-12-12T02:32:15.621Z,9.02
2023-12-12T02:34:42.947Z,4.78
2023-12-12T02:37:10.359Z,12.55
2023-12-12T02:39:43.316Z,11.85
2023-12-12T02:42:10.372Z,9.23
2023-12-12T02:44:37.423Z,7.05
2023-12-12T02:47:04.600Z,7.10
2023-12-12T02:49:31.871Z,8.38
2023-12-12T02:51:59.473Z,5.30
2023-12-12T02:54:26.789Z,6.60
2023-12-12T02:56:53.958Z,7.88
2023-12-12T02:59:20.977Z,6.57
2023-12-12T03:01:51.544Z,8.60
2023-12-12T03:04:18.831Z,8.75
2023-12-12T03:06:46.026Z,5.68
2023-12-12T03:09:19.884Z,7.13
2023-12-12T03:11:47.225Z,7.50
2023-12-12T03:14:14.280Z,8.95
2023-12-12T03:16:41.752Z,5.50
2023-12-12T03:19:09.579Z,7.93
2023-12-12T03:21:36.786Z,7.95
2023-12-12T03:24:04.140Z,8.20
2023-12-12T03:26:31.147Z,7.00
2023-12-12T03:28:59.375Z,8.18
2023-12-12T03:31:26.609Z,8.88
2023-12-12T03:33:56.296Z,11.93
2023-12-12T03:36:34.430Z,10.38
2023-12-12T03:39:11.839Z,8.65
2023-12-12T03:41:42.284Z,4.93
2023-12-12T03:44:15.080Z,9.07
2023-12-12T03:46:43.124Z,6.20
2023-12-12T03:49:10.693Z,7.75
2023-12-12T03:51:41.976Z,7.38
2023-12-12T03:54:13.270Z,7.40
2023-12-12T03:56:40.609Z,15.10
2023-12-12T03:59:08.472Z,11.73
2023-12-12T04:01:36.004Z,8.48
2023-12-12T04:04:03.351Z,8.25
2023-12-12T04:06:39.080Z,6.43
2023-12-12T04:09:06.172Z,12.07
2023-12-12T04:11:36.316Z,12.70
2023-12-12T04:14:03.530Z,11.18
2023-12-12T04:16:36.664Z,9.13
2023-12-12T04:19:07.045Z,9.80
2023-12-12T04:21:34.104Z,11.15
2023-12-12T04:24:04.450Z,6.38
2023-12-12T04:26:31.506Z,8.85
2023-12-12T04:29:02.128Z,7.32
2023-12-12T04:31:32.419Z,6.88
2023-12-12T04:33:59.827Z,7.20
2023-12-12T04:36:29.556Z,4.60
2023-12-12T04:39:02.554Z,6.47
2023-12-12T04:41:32.707Z,5.63
2023-12-12T04:43:59.815Z,8.45
2023-12-12T04:46:26.893Z,7.28
2023-12-12T04:48:54.283Z,5.60
2023-12-12T04:51:21.418Z,8.13
2023-12-12T04:53:53.379Z,7.13
2023-12-12T04:56:20.607Z,6.63
2023-12-12T04:58:50.991Z,7.00
2023-12-12T05:01:18.464Z,5.15
2023-12-12T05:03:57.249Z,7.75
2023-12-12T05:06:25.147Z,8.05
2023-12-12T05:08:52.539Z,7.05
2023-12-12T05:11:25.929Z,10.93
2023-12-12T05:13:54.555Z,12.38
2023-12-12T05:16:31.044Z,9.18
2023-12-12T05:19:06.438Z,9.48
2023-12-12T05:24:41.053Z,10.32
2023-12-12T05:27:32.602Z,12.30
2023-12-12T05:30:20.638Z,7.75
2023-12-12T05:32:48.107Z,11.57
2023-12-12T05:35:18.443Z,10.00
2023-12-12T05:37:48.772Z,8.93
2023-12-12T05:40:18.831Z,5.88
2023-12-12T05:42:46.083Z,5.82
2023-12-12T05:45:16.559Z,7.43
2023-12-12T05:48:04.725Z,10.82
2023-12-12T05:50:37.393Z,8.60
2023-12-12T05:53:09.541Z,8.40
2023-12-12T05:55:42.085Z,9.25
2023-12-12T05:58:12.422Z,15.27
2023-12-12T06:00:46.012Z,12.95
2023-12-12T06:03:19.623Z,9.60
2023-12-12T06:05:47.032Z,8.93
2023-12-12T06:08:37.153Z,13.15
2023-12-12T06:11:04.844Z,8.98
2023-12-12T06:13:57.638Z,7.45
2023-12-12T06:16:39.861Z,7.32
2023-12-12T06:19:22.425Z,8.73
2023-12-12T06:21:54.818Z,10.88
2023-12-12T06:24:24.942Z,11.13
2023-12-12T06:27:01.611Z,12.93
2023-12-12T06:29:29.150Z,7.90
2023-12-12T06:32:07.229Z,7.15
2023-12-12T06:34:40.936Z,11.48
2023-12-12T06:37:09.095Z,12.40
2023-12-12T06:39:40.354Z,7.40
2023-12-12T06:42:26.530Z,6.20
2023-12-12T06:45:02.701Z,7.82
2023-12-12T06:47:29.972Z,10.05
2023-12-12T06:50:00.721Z,8.05
2023-12-12T06:52:28.169Z,9.07
2023-12-12T06:55:20.329Z,10.60
2023-12-12T06:57:47.300Z,15.68
2023-12-12T07:00:15.900Z,11.40
2023-12-12T07:08:47.203Z,11.05
2023-12-12T07:11:17.008Z,11.98
2023-12-12T07:13:46.878Z,11.90
2023-12-12T07:16:17.224Z,10.57
2023-12-12T07:18:44.617Z,9.80
2023-12-12T07:21:16.496Z,7.32
2023-12-12T07:23:57.004Z,12.93
2023-12-12T07:26:26.024Z,10.40
2023-12-12T07:28:59.628Z,9.18
2023-12-12T07:31:34.237Z,9.23
2023-12-12T07:34:04.309Z,12.48
2023-12-12T07:36:35.224Z,12.68
2023-12-12T07:39:06.954Z,14.82
2023-12-12T07:41:33.965Z,19.02
2023-12-12T07:44:13.604Z,16.40
2023-12-12T07:46:47.922Z,9.48
2023-12-12T07:49:16.386Z,11.25
2023-12-12T07:51:49.117Z,13.77
2023-12-12T07:54:16.087Z,15.52
2023-12-12T07:56:49.243Z,12.45
2023-12-12T07:59:19.524Z,11.85
2023-12-12T08:01:46.883Z,15.65
2023-12-12T08:04:14.544Z,18.35
2023-12-12T08:06:45.122Z,13.65
2023-12-12T08:09:12.036Z,17.05
2023-12-12T08:11:39.775Z,13.45
2023-12-12T08:14:07.425Z,10.20
2023-12-12T08:16:34.468Z,14.38
2023-12-12T08:19:02.791Z,15.48
2023-12-12T08:21:31.621Z,11.65
2023-12-12T08:24:05.074Z,12.35
2023-12-12T08:26:32.253Z,16.90
2023-12-12T08:29:05.291Z,12.82
2023-12-12T08:32:02.051Z,16.65
2023-12-12T08:34:31.418Z,16.50
2023-12-12T08:37:09.387Z,16.65
2023-12-12T08:42:29.015Z,14.88
2023-12-12T08:45:03.166Z,11.60
2023-12-12T08:47:36.553Z,14.40
2023-12-12T08:50:11.183Z,26.67
2023-12-12T08:52:38.538Z,22.23
2023-12-12T08:55:10.074Z,17.08
2023-12-12T08:57:41.362Z,31.23
2023-12-12T09:00:10.323Z,38.25
2023-12-12T09:02:41.651Z,31.25
2023-12-12T09:05:12.274Z,34.70
2023-12-12T09:07:39.244Z,30.70
2023-12-12T09:10:08.044Z,22.77
2023-12-12T09:12:35.968Z,20.58
2023-12-12T09:15:03.738Z,19.08
2023-12-12T09:17:42.459Z,22.50
2023-12-12T09:20:29.731Z,19.52
2023-12-12T09:23:11.639Z,19.83
2023-12-12T09:26:02.746Z,26.52
2023-12-12T09:28:33.237Z,23.15
2023-12-12T09:31:00.559Z,24.42
2023-12-12T09:33:27.753Z,14.88
2023-12-12T09:35:54.945Z,18.27
2023-12-12T09:38:21.982Z,18.92
2023-12-12T09:40:57.714Z,19.63
2023-12-12T09:43:28.649Z,14.02
2023-12-12T09:45:59.606Z,22.80
2023-12-12T09:48:30.235Z,20.65
2023-12-12T09:51:00.923Z,22.95
2023-12-12T09:53:32.139Z,19.50
2023-12-12T09:56:04.748Z,21.20
2023-12-12T09:58:32.305Z,23.50
2023-12-12T10:01:02.231Z,26.25
2023-12-12T10:03:34.542Z,17.15
2023-12-12T10:06:05.529Z,21.02
2023-12-12T10:08:32.766Z,24.10
2023-12-12T10:11:00.177Z,30.85
2023-12-12T10:13:27.716Z,21.13
2023-12-12T10:15:58.759Z,20.98
2023-12-12T10:18:26.608Z,19.80
2023-12-12T10:20:53.840Z,22.45
2023-12-12T10:23:30.974Z,25.55
2023-12-12T10:26:02.229Z,16.05
2023-12-12T10:28:34.506Z,20.10
2023-12-12T10:31:21.463Z,23.65
2023-12-12T10:33:55.413Z,24.27
2023-12-12T10:36:38.177Z,21.23
2023-12-12T10:39:16.582Z,22.83
2023-12-12T10:41:56.886Z,22.90
2023-12-12T10:44:36.670Z,20.23
2023-12-12T10:47:14.176Z,24.30
2023-12-12T10:49:48.655Z,22.20
2023-12-12T10:52:24.794Z,20.83
2023-12-12T10:54:54.765Z,23.98
2023-12-12T11:00:38.219Z,22.38
2023-12-12T11:03:08.723Z,21.95
2023-12-12T11:05:35.715Z,21.02
2023-12-12T11:08:06.489Z,15.90
2023-12-12T11:13:41.331Z,20.48
2023-12-12T11:16:09.830Z,19.25
2023-12-12T11:25:12.524Z,17.45
2023-12-12T11:27:41.682Z,19.02
2023-12-12T11:30:09.615Z,17.00
2023-12-12T11:32:52.228Z,20.95
2023-12-12T11:35:40.786Z,18.17
2023-12-12T11:38:32.263Z,21.42
2023-12-12T11:41:15.355Z,15.70
2023-12-12T11:43:55.444Z,17.60
2023-12-12T11:46:48.295Z,12.20
2023-12-12T11:49:58.515Z,17.30
2023-12-12T11:52:40.928Z,12.57
2023-12-12T11:55:09.664Z,15.57
2023-12-12T11:57:56.611Z,15.07
2023-12-12T12:00:27.283Z,19.73
2023-12-12T12:02:54.749Z,16.00
2023-12-12T12:05:25.652Z,15.02
2023-12-12T12:07:59.448Z,16.20
2023-12-12T12:10:29.274Z,18.92
2023-12-12T12:12:59.229Z,18.25
2023-12-12T12:15:28.436Z,13.90
2023-12-12T12:18:01.488Z,15.98
2023-12-12T12:20:28.590Z,11.70
2023-12-12T12:22:55.862Z,15.60
2023-12-12T12:28:07.410Z,18.60
2023-12-12T12:30:46.180Z,13.20
2023-12-12T12:33:15.204Z,17.75
2023-12-12T12:35:53.057Z,15.35
2023-12-12T12:38:34.553Z,13.70
2023-12-12T12:42:24.516Z,16.02
2023-12-12T12:44:55.981Z,10.65
2023-12-12T12:47:22.976Z,9.82
2023-12-12T12:49:57.154Z,10.32
2023-12-12T12:54:52.067Z,12.20
2023-12-12T12:57:19.536Z,12.80
2023-12-12T12:59:46.847Z,15.20
2023-12-12T13:02:13.948Z,13.48
2023-12-12T13:04:44.414Z,14.95
2023-12-12T13:07:16.238Z,13.82
2023-12-12T13:09:44.574Z,10.38
2023-12-12T13:12:11.970Z,14.98
2023-12-12T13:14:39.161Z,16.60
2023-12-12T13:17:13.069Z,11.45
2023-12-12T13:22:13.598Z,14.98
2023-12-12T13:24:41.117Z,17.27
2023-12-12T13:27:08.043Z,18.33
2023-12-12T13:29:38.618Z,16.88
2023-12-12T13:32:06.309Z,12.15
2023-12-12T13:34:36.210Z,16.35
2023-12-12T13:37:22.517Z,15.75
2023-12-12T13:40:04.418Z,16.33
2023-12-12T13:42:34.938Z,21.73
2023-12-12T13:45:21.601Z,14.20
2023-12-12T13:47:53.175Z,14.50
2023-12-12T13:50:20.672Z,20.05
2023-12-12T13:52:47.574Z,17.15
2023-12-12T13:55:16.623Z,18.52
2023-12-12T13:57:46.591Z,11.85
2023-12-12T14:00:28.685Z,13.43
2023-12-12T14:02:55.846Z,12.20
2023-12-12T14:05:30.277Z,15.02
2023-12-12T14:08:07.918Z,15.57
2023-12-12T14:10:39.059Z,13.05
2023-12-12T14:13:35.795Z,16.38
2023-12-12T14:16:05.745Z,11.85
2023-12-12T14:18:34.413Z,17.20
2023-12-12T14:21:01.554Z,12.93
2023-12-12T14:24:10.081Z,15.93
2023-12-12T14:26:47.022Z,15.35
2023-12-12T14:29:20.641Z,15.60
2023-12-12T14:34:28.998Z,16.63
2023-12-12T14:37:04.050Z,15.77
2023-12-12T14:39:33.439Z,14.38
2023-12-12T14:45:22.754Z,19.20
2023-12-12T14:48:15.983Z,21.95
2023-12-12T14:51:06.286Z,18.42
2023-12-12T14:53:33.121Z,19.52
2023-12-12T14:56:00.244Z,22.15
2023-12-12T14:58:27.560Z,20.25
2023-12-12T15:00:55.168Z,19.48
2023-12-12T15:03:24.610Z,21.02
2023-12-12T15:05:54.260Z,16.63
2023-12-12T15:08:25.641Z,12.43
2023-12-12T15:11:08.256Z,18.02
2023-12-12T15:13:44.392Z,20.50
2023-12-12T15:16:12.900Z,14.55
2023-12-12T15:18:40.604Z,18.15
2023-12-12T15:21:13.593Z,16.58
2023-12-12T15:23:50.523Z,17.50
2023-12-12T15:26:17.732Z,17.02
2023-12-12T15:28:45.570Z,15.57
2023-12-12T15:31:12.804Z,21.15
2023-12-12T15:33:42.441Z,17.80
2023-12-12T15:36:10.208Z,15.45
2023-12-12T15:38:37.855Z,18.20
2023-12-12T15:41:06.790Z,29.67
2023-12-12T15:43:46.488Z,38.53
2023-12-12T15:46:19.989Z,25.92
2023-12-12T15:48:47.628Z,22.65
2023-12-12T15:51:17.277Z,26.05
2023-12-12T15:53:44.935Z,25.45
2023-12-12T15:56:13.138Z,20.73
2023-12-12T15:58:43.534Z,19.92
2023-12-12T16:01:14.389Z,28.75
2023-12-12T16:03:44.641Z,42.75
2023-12-12T16:06:12.126Z,50.80
2023-12-12T16:08:40.562Z,33.78
2023-12-12T16:11:07.893Z,35.15
2023-12-12T16:16:19.513Z,28.10
2023-12-12T16:18:48.984Z,36.63
2023-12-12T16:21:16.216Z,31.40
2023-12-12T16:23:46.353Z,27.98
2023-12-12T16:26:22.466Z,35.92
2023-12-12T16:28:50.105Z,39.60
2023-12-12T16:31:20.414Z,33.80
2023-12-12T16:33:47.806Z,47.25
2023-12-12T16:36:15.083Z,40.47
2023-12-12T16:38:44.663Z,32.55
2023-12-12T16:41:14.054Z,18.60
2023-12-12T16:43:41.160Z,14.32
2023-12-12T16:46:08.238Z,16.75
2023-12-12T16:48:35.636Z,46.60
2023-12-12T16:51:04.610Z,22.25
2023-12-12T16:53:35.899Z,26.88
2023-12-12T16:56:10.115Z,15.63
2023-12-12T16:58:37.897Z,19.80
2023-12-12T17:01:06.116Z,12.63
2023-12-12T17:03:33.931Z,22.05
2023-12-12T17:06:05.022Z,15.32
2023-12-12T17:08:35.260Z,20.83
2023-12-12T17:11:11.652Z,12.68
2023-12-12T17:13:53.599Z,26.05
2023-12-12T17:16:32.025Z,22.50
2023-12-12T17:19:03.153Z,14.15
2023-12-12T17:21:30.296Z,20.73
2023-12-12T17:23:57.952Z,17.70
2023-12-12T17:26:25.840Z,21.73
2023-12-12T17:28:53.497Z,21.42
2023-12-12T17:31:26.554Z,20.55
2023-12-12T17:34:02.972Z,21.77
2023-12-12T17:36:31.548Z,20.33
2023-12-12T17:38:58.529Z,26.23
2023-12-12T17:41:28.846Z,18.70
2023-12-12T17:43:56.194Z,25.85
2023-12-12T17:46:25.935Z,19.90
2023-12-12T17:48:59.530Z,22.67
2023-12-12T17:51:26.631Z,17.88
2023-12-12T17:53:53.902Z,17.63
2023-12-12T17:56:22.701Z,15.82
2023-12-12T17:58:54.026Z,18.00
2023-12-12T18:01:21.432Z,15.85
2023-12-12T18:03:51.208Z,14.23
2023-12-12T18:06:32.459Z,21.40
2023-12-12T18:09:00.275Z,14.85
2023-12-12T18:11:57.744Z,18.90
2023-12-12T18:14:29.329Z,20.15
2023-12-12T18:16:57.251Z,16.95
2023-12-12T18:19:30.938Z,19.00
2023-12-12T18:21:58.739Z,19.83
2023-12-12T18:24:34.791Z,20.42
2023-12-12T18:27:10.744Z,17.15
2023-12-12T18:29:37.926Z,16.23
2023-12-12T18:32:13.339Z,19.02
2023-12-12T18:37:30.419Z,16.77
2023-12-12T18:40:09.636Z,13.70
2023-12-12T18:42:54.830Z,14.80
2023-12-12T18:45:27.388Z,12.23
2023-12-12T18:48:12.551Z,13.73
2023-12-12T18:50:45.872Z,19.80
2023-12-12T18:53:15.732Z,17.63
2023-12-12T18:55:54.640Z,14.38
2023-12-12T18:58:22.291Z,15.65
2023-12-12T19:00:52.455Z,17.05
2023-12-12T19:03:20.054Z,12.98
2023-12-12T19:05:56.224Z,7.75
2023-12-12T19:08:32.860Z,9.05
2023-12-12T19:11:00.049Z,10.68
2023-12-12T19:13:36.813Z,8.93
2023-12-12T19:16:05.978Z,9.10
2023-12-12T19:18:33.272Z,8.30
2023-12-12T19:21:00.851Z,7.65
2023-12-12T19:23:34.146Z,8.82
2023-12-12T19:26:01.832Z,7.77
2023-12-12T19:28:32.061Z,7.40
2023-12-12T19:30:59.611Z,7.18
2023-12-12T19:33:29.775Z,9.35
2023-12-12T19:36:17.511Z,12.88
2023-12-12T19:38:44.701Z,8.32
2023-12-12T19:41:12.092Z,6.45
2023-12-12T19:43:42.185Z,9.38
2023-12-12T19:46:13.032Z,9.68
2023-12-12T19:48:43.795Z,11.73
2023-12-12T19:51:11.014Z,7.30
2023-12-12T19:53:37.928Z,12.30
2023-12-12T19:56:11.268Z,9.38
2023-12-12T19:58:41.812Z,11.10
2023-12-12T20:01:18.926Z,13.77
2023-12-12T20:03:55.565Z,9.85
2023-12-12T20:06:28.118Z,12.80
2023-12-12T20:08:58.486Z,8.45
2023-12-12T20:11:54.593Z,9.60
2023-12-12T20:14:21.732Z,6.85
2023-12-12T20:16:56.037Z,7.75
2023-12-12T20:19:29.464Z,7.85
2023-12-12T20:22:02.649Z,6.97
2023-12-12T20:24:41.810Z,7.03
2023-12-12T20:27:48.723Z,7.60
2023-12-12T20:33:27.985Z,9.65
2023-12-12T20:35:56.663Z,7.35
2023-12-12T20:38:30.010Z,6.72
2023-12-12T20:40:57.896Z,7.93
2023-12-12T20:43:28.059Z,7.25
2023-12-12T20:45:55.342Z,6.70
2023-12-12T20:48:29.214Z,7.97
2023-12-12T20:50:56.765Z,7.45
2023-12-12T20:53:24.877Z,9.48
2023-12-12T20:56:48.774Z,8.32
2023-12-12T20:59:26.402Z,7.85
2023-12-12T21:01:53.636Z,9.63
2023-12-12T21:04:20.918Z,8.43
2023-12-12T21:07:00.593Z,41.38
2023-12-12T21:09:31.628Z,29.33
2023-12-12T21:11:59.006Z,20.80
2023-12-12T21:14:28.849Z,13.70
2023-12-12T21:16:59.406Z,12.25
2023-12-12T21:19:26.828Z,16.42
2023-12-12T21:21:54.309Z,18.25
2023-12-12T21:24:23.976Z,21.13
2023-12-12T21:26:54.160Z,24.20
2023-12-12T21:29:24.065Z,13.82
2023-12-12T21:31:51.111Z,9.23
2023-12-12T21:34:18.420Z,9.25
2023-12-12T21:36:46.586Z,8.43
2023-12-12T21:39:16.267Z,13.50
2023-12-12T21:41:46.187Z,11.98
2023-12-12T21:48:15.181Z,11.38
2023-12-12T21:51:03.301Z,18.65
2023-12-12T21:53:34.541Z,12.95
2023-12-12T21:56:11.467Z,16.17
2023-12-12T21:58:51.254Z,18.52
2023-12-12T22:01:19.540Z,20.98
2023-12-12T22:03:46.969Z,20.40
2023-12-12T22:06:14.436Z,15.63
2023-12-12T22:08:43.610Z,13.75
2023-12-12T22:11:21.678Z,12.60
2023-12-12T22:13:59.046Z,14.57
2023-12-12T22:16:29.577Z,13.43
2023-12-12T22:18:59.656Z,12.25
2023-12-12T22:21:28.515Z,11.10
2023-12-12T22:23:56.508Z,10.75
2023-12-12T22:26:24.237Z,10.70
2023-12-12T22:28:51.447Z,9.95
2023-12-12T22:31:18.467Z,10.65
2023-12-12T22:33:45.472Z,10.05
2023-12-12T22:36:20.224Z,10.63
2023-12-12T22:38:48.093Z,8.82
2023-12-12T22:41:22.542Z,9.60
2023-12-12T22:43:49.965Z,11.73
2023-12-12T22:46:22.476Z,10.80
2023-12-12T22:48:54.809Z,8.55
2023-12-12T22:51:25.012Z,9.85
2023-12-12T22:53:52.020Z,8.80
2023-12-12T22:56:46.092Z,7.72
2023-12-12T22:59:13.140Z,8.63
2023-12-12T23:01:49.800Z,9.48
2023-12-12T23:07:01.447Z,7.63
2023-12-12T23:13:01.218Z,8.65
2023-12-12T23:15:35.034Z,7.95
2023-12-12T23:18:23.571Z,6.95
2023-12-12T23:20:52.719Z,7.00
2023-12-12T23:23:21.426Z,5.93
2023-12-12T23:25:58.761Z,7.35
2023-12-12T23:28:26.500Z,7.85
2023-12-12T23:31:08.118Z,7.00
2023-12-12T23:33:57.975Z,7.32
2023-12-12T23:36:45.103Z,7.88
2023-12-12T23:39:12.379Z,6.32
2023-12-12T23:41:47.057Z,5.82
2023-12-12T23:44:17.987Z,5.70
2023-12-12T23:46:45.901Z,6.07
2023-12-12T23:49:15.236Z,4.22
2023-12-12T23:51:43.116Z,4.15
2023-12-12T23:54:10.639Z,9.52
2023-12-12T23:56:44.411Z,4.15
2023-12-12T23:59:11.497Z,4.85
